Time;durP1;ratioP1;P1;durP2;ratioP2;P2;SDS_P1;SDS_P2;PMS_P1;PMS_P2;Temp;Humidity;BMP_temperature;BMP_pressure;BME280_temperature;BME280_humidity;BME280_pressure;Samples;Min_cycle;Max_cycle;Signal;HPM_P1;HPM_P2
2023/03/26 00:01:04;;;;;;;7.82;4.63;;;18.80;64.60;;;;;;5054073;28;20055;-22
2023/03/26 00:03:32;;;;;;;5.93;4.70;;;18.80;64.60;;;;;;5053975;28;20415;-23
2023/03/26 00:06:02;;;;;;;7.07;4.57;;;18.70;64.60;;;;;;5053502;28;20108;-22
2023/03/26 00:08:28;;;;;;;6.25;4.85;;;18.80;64.60;;;;;;5053458;28;20511;-24
2023/03/26 00:10:54;;;;;;;6.88;4.63;;;18.70;64.60;;;;;;5053816;28;20051;-24
2023/03/26 00:13:20;;;;;;;6.45;4.70;;;18.80;64.60;;;;;;5053868;28;20039;-24
2023/03/26 00:15:47;;;;;;;6.57;4.60;;;18.70;64.60;;;;;;5052421;28;20385;-24
2023/03/26 00:18:14;;;;;;;7.50;4.90;;;18.70;64.70;;;;;;5053990;28;20032;-25
2023/03/26 00:20:40;;;;;;;5.47;4.32;;;18.70;64.70;;;;;;5053442;28;20064;-24
2023/03/26 00:23:07;;;;;;;7.35;4.50;;;18.70;64.70;;;;;;5053641;28;20052;-24
2023/03/26 00:25:37;;;;;;;5.90;4.50;;;18.70;64.70;;;;;;5053498;28;20112;-24
2023/03/26 00:28:05;;;;;;;5.80;4.43;;;18.70;64.70;;;;;;5053116;28;20025;-24
2023/03/26 00:30:32;;;;;;;5.55;4.30;;;18.70;64.70;;;;;;5053591;28;20384;-25
2023/03/26 00:32:58;;;;;;;6.28;4.55;;;18.70;64.70;;;;;;5053235;28;20029;-24
2023/03/26 00:35:24;;;;;;;5.47;4.45;;;18.70;64.70;;;;;;5053580;28;20027;-24
2023/03/26 00:37:50;;;;;;;6.72;4.60;;;18.70;64.70;;;;;;5053271;28;20024;-24
2023/03/26 00:40:16;;;;;;;6.15;4.70;;;18.70;64.70;;;;;;5053066;28;20067;-23
2023/03/26 00:42:42;;;;;;;6.22;4.45;;;18.70;64.70;;;;;;5053138;28;20025;-23
2023/03/26 00:45:08;;;;;;;5.78;4.47;;;18.70;64.70;;;;;;5053326;28;20087;-25
2023/03/26 00:47:34;;;;;;;5.82;4.45;;;18.70;64.70;;;;;;5052990;28;20103;-24
2023/03/26 00:50:02;;;;;;;6.25;4.60;;;18.70;64.70;;;;;;5052821;28;20427;-25
2023/03/26 00:52:30;;;;;;;4.75;4.05;;;18.70;64.70;;;;;;5053285;28;20033;-24
2023/03/26 00:54:56;;;;;;;5.65;4.40;;;18.60;64.70;;;;;;5052939;28;20464;-24
2023/03/26 00:57:22;;;;;;;6.88;4.28;;;18.60;64.70;;;;;;5052909;28;20520;-23
2023/03/26 00:59:48;;;;;;;5.13;4.03;;;18.60;64.70;;;;;;5053040;28;20060;-24
2023/03/26 01:02:17;;;;;;;5.65;4.47;;;18.60;64.70;;;;;;5052902;28;20435;-24
2023/03/26 01:04:46;;;;;;;6.38;4.53;;;18.60;64.70;;;;;;5052819;28;20395;-23
2023/03/26 01:07:21;;;;;;;6.63;4.60;;;18.60;64.70;;;;;;5055844;28;20080;-24
2023/03/26 01:09:50;;;;;;;5.88;4.50;;;18.60;64.80;;;;;;5056821;28;20025;-24
2023/03/26 01:12:21;;;;;;;6.30;4.50;;;18.60;64.70;;;;;;5056980;28;20025;-23
2023/03/26 01:14:49;;;;;;;6.85;4.55;;;18.60;64.70;;;;;;5056840;28;20021;-24
2023/03/26 01:17:17;;;;;;;6.82;4.60;;;18.60;64.70;;;;;;5057173;28;20116;-23
2023/03/26 01:20:07;;;;;;;5.78;4.35;;;18.60;64.70;;;;;;5056635;28;20147;-23
2023/03/26 01:22:35;;;;;;;5.25;4.30;;;18.60;64.80;;;;;;5056795;28;20036;-23
2023/03/26 01:25:02;;;;;;;5.32;4.00;;;18.50;64.80;;;;;;5056919;28;20428;-23
2023/03/26 01:27:53;;;;;;;6.28;4.45;;;18.50;64.80;;;;;;5056920;28;20103;-23
2023/03/26 01:30:48;;;;;;;6.20;4.50;;;18.50;64.80;;;;;;5057153;28;20033;-23
2023/03/26 01:33:28;;;;;;;5.45;4.03;;;18.60;64.80;;;;;;5056885;28;20522;-23
2023/03/26 01:36:20;;;;;;;6.10;4.50;;;18.50;64.80;;;;;;5056372;28;20033;-24
2023/03/26 01:38:47;;;;;;;5.03;4.18;;;18.50;64.80;;;;;;5056547;28;20473;-24
2023/03/26 01:41:37;;;;;;;4.72;4.00;;;18.50;64.80;;;;;;5056379;28;20047;-23
2023/03/26 01:44:10;;;;;;;5.85;4.07;;;18.50;64.80;;;;;;5056380;28;20033;-23
2023/03/26 01:46:36;;;;;;;4.75;3.97;;;18.50;64.80;;;;;;5056950;28;20029;-24
2023/03/26 01:49:11;;;;;;;4.72;4.10;;;18.50;64.90;;;;;;5056257;28;20037;-24
2023/03/26 01:51:39;;;;;;;6.13;4.07;;;18.50;64.80;;;;;;5056601;28;20029;-24
2023/03/26 01:54:13;;;;;;;5.50;4.00;;;18.50;64.90;;;;;;5056265;28;20025;-24
2023/03/26 01:56:58;;;;;;;6.22;3.90;;;18.40;64.90;;;;;;5056651;28;20060;-24
2023/03/26 01:59:44;;;;;;;5.32;4.05;;;18.40;64.90;;;;;;5056178;28;20489;-24
2023/03/26 02:02:37;;;;;;;5.32;4.25;;;18.50;64.90;;;;;;5056580;28;20087;-24
2023/03/26 02:05:03;;;;;;;5.05;4.03;;;18.40;64.90;;;;;;5055837;28;20029;-24
2023/03/26 02:07:36;;;;;;;5.32;4.20;;;18.40;64.90;;;;;;5055695;28;20044;-24
2023/03/26 02:10:23;;;;;;;4.85;4.10;;;18.40;64.90;;;;;;5055721;28;20478;-23
2023/03/26 02:12:49;;;;;;;6.05;4.30;;;18.40;64.90;;;;;;5056091;28;20377;-24
2023/03/26 02:15:16;;;;;;;5.22;4.15;;;18.40;64.90;;;;;;5055758;28;20063;-24
2023/03/26 02:17:42;;;;;;;6.00;4.18;;;18.40;64.90;;;;;;5055497;28;20086;-23
2023/03/26 02:20:13;;;;;;;4.95;3.88;;;18.40;65.00;;;;;;5055897;28;20025;-24
2023/03/26 02:22:40;;;;;;;6.20;4.30;;;18.40;65.00;;;;;;5055880;28;20362;-25
2023/03/26 02:25:12;;;;;;;4.97;4.13;;;18.40;65.00;;;;;;5055529;28;20373;-24
2023/03/26 02:27:38;;;;;;;5.80;4.63;;;18.40;64.90;;;;;;5055811;28;20025;-24
2023/03/26 02:30:07;;;;;;;4.40;3.75;;;18.40;65.00;;;;;;5054031;28;20036;-25
2023/03/26 02:32:34;;;;;;;6.07;4.43;;;18.40;65.00;;;;;;5055347;28;20021;-24
2023/03/26 02:35:00;;;;;;;6.53;4.00;;;18.40;65.00;;;;;;5055444;28;20028;-24
2023/03/26 02:37:29;;;;;;;6.47;4.40;;;18.40;65.00;;;;;;5055720;28;20115;-23
2023/03/26 02:39:55;;;;;;;6.15;4.15;;;18.40;65.00;;;;;;5055076;28;20548;-24
2023/03/26 02:42:21;;;;;;;6.30;4.05;;;18.40;65.00;;;;;;5055238;28;20115;-25
2023/03/26 02:44:46;;;;;;;5.18;3.80;;;18.40;65.00;;;;;;5055073;28;20029;-24
2023/03/26 02:47:12;;;;;;;5.45;4.20;;;18.40;65.00;;;;;;5055522;28;20036;-24
2023/03/26 02:49:38;;;;;;;5.40;4.13;;;18.40;65.00;;;;;;5055341;28;20489;-24
2023/03/26 02:52:05;;;;;;;5.30;4.03;;;18.40;65.00;;;;;;5054859;28;20032;-24
2023/03/26 02:54:33;;;;;;;4.75;4.10;;;18.40;65.00;;;;;;5055374;28;20043;-24
2023/03/26 02:56:59;;;;;;;5.38;4.00;;;18.30;65.00;;;;;;5054898;28;20021;-24
2023/03/26 02:59:25;;;;;;;4.97;3.95;;;18.30;65.10;;;;;;5055249;28;20032;-25
2023/03/26 03:01:51;;;;;;;5.43;4.20;;;18.40;65.10;;;;;;5054701;28;20508;-25
2023/03/26 03:04:16;;;;;;;4.97;3.95;;;18.30;65.10;;;;;;5054833;28;20029;-22
2023/03/26 03:06:45;;;;;;;5.05;4.07;;;18.30;65.10;;;;;;5054885;28;20075;-23
2023/03/26 03:09:12;;;;;;;5.25;4.03;;;18.30;65.10;;;;;;5055155;28;20048;-25
2023/03/26 03:11:40;;;;;;;5.90;3.92;;;18.30;65.10;;;;;;5054887;28;20025;-25
2023/03/26 03:14:07;;;;;;;4.20;3.80;;;18.30;65.10;;;;;;5054505;28;20083;-24
2023/03/26 03:16:32;;;;;;;4.30;3.63;;;18.30;65.10;;;;;;5054933;28;20031;-24
2023/03/26 03:18:59;;;;;;;4.47;3.95;;;18.30;65.10;;;;;;5055087;28;20021;-24
2023/03/26 03:21:27;;;;;;;5.25;4.03;;;18.30;65.10;;;;;;5054589;28;20025;-24
2023/03/26 03:23:57;;;;;;;5.25;3.75;;;18.30;65.10;;;;;;5054059;28;20041;-24
2023/03/26 03:26:28;;;;;;;4.85;3.90;;;18.30;65.10;;;;;;5054400;28;20048;-24
2023/03/26 03:28:56;;;;;;;4.97;3.80;;;18.30;65.10;;;;;;5053786;28;20033;-24
2023/03/26 03:31:24;;;;;;;4.60;3.92;;;18.30;65.10;;;;;;5054769;28;20416;-25
2023/03/26 03:33:51;;;;;;;4.80;3.90;;;18.30;65.10;;;;;;5054090;28;20057;-23
2023/03/26 03:36:21;;;;;;;4.90;3.80;;;18.20;65.10;;;;;;5054535;28;20090;-24
2023/03/26 03:38:49;;;;;;;5.28;4.10;;;18.20;65.10;;;;;;5054243;28;20033;-23
2023/03/26 03:41:17;;;;;;;5.03;3.67;;;18.20;65.10;;;;;;5054401;28;20033;-23
2023/03/26 03:43:44;;;;;;;5.05;3.92;;;18.20;65.10;;;;;;5054002;28;20044;-23
2023/03/26 03:46:09;;;;;;;4.30;3.70;;;18.20;65.20;;;;;;5054320;28;20033;-23
2023/03/26 03:48:37;;;;;;;4.57;3.80;;;18.20;65.20;;;;;;5054495;28;20459;-23
2023/03/26 03:51:04;;;;;;;5.28;4.00;;;18.20;65.20;;;;;;5053957;28;20029;-23
2023/03/26 03:53:31;;;;;;;4.65;4.07;;;18.20;65.20;;;;;;5054114;28;20079;-22
2023/03/26 03:55:57;;;;;;;5.68;4.28;;;18.20;65.20;;;;;;5053594;28;20442;-23
2023/03/26 03:58:26;;;;;;;4.97;3.85;;;18.20;65.20;;;;;;5053839;28;20397;-24
2023/03/26 04:01:03;;;;;;;5.43;3.90;;;18.20;65.20;;;;;;5053820;28;20167;-24
2023/03/26 04:03:29;;;;;;;5.75;3.88;;;18.20;65.20;;;;;;5054098;28;20025;-22
2023/03/26 04:05:55;;;;;;;4.85;4.10;;;18.20;65.20;;;;;;5053459;28;20439;-23
2023/03/26 04:08:22;;;;;;;5.13;3.90;;;18.20;65.20;;;;;;5053455;28;20513;-24
2023/03/26 04:10:48;;;;;;;4.70;3.72;;;18.20;65.20;;;;;;5053917;28;20032;-24
2023/03/26 04:13:14;;;;;;;5.57;3.85;;;18.20;65.20;;;;;;5053593;28;20125;-24
2023/03/26 04:15:41;;;;;;;4.47;3.75;;;18.20;65.20;;;;;;5053488;28;20488;-24
2023/03/26 04:18:09;;;;;;;5.88;3.95;;;18.10;65.20;;;;;;5053404;28;20111;-23
2023/03/26 04:20:45;;;;;;;5.47;3.83;;;18.20;65.20;;;;;;5053797;28;20067;-24
2023/03/26 04:23:16;;;;;;;4.32;3.67;;;18.20;65.20;;;;;;5053422;28;20032;-25
2023/03/26 04:25:47;;;;;;;4.90;3.95;;;18.20;65.20;;;;;;5052991;28;20044;-24
2023/03/26 04:28:19;;;;;;;5.03;4.03;;;18.10;65.20;;;;;;5053737;28;20502;-24
2023/03/26 04:30:45;;;;;;;4.93;3.90;;;18.10;65.30;;;;;;5053259;28;20473;-24
2023/03/26 04:33:14;;;;;;;4.50;3.80;;;18.10;65.30;;;;;;5051984;28;20025;-23
2023/03/26 04:35:43;;;;;;;5.40;4.10;;;18.10;65.30;;;;;;5053227;28;20025;-24
2023/03/26 04:38:10;;;;;;;5.20;3.95;;;18.10;65.30;;;;;;5053226;28;20502;-24
2023/03/26 04:40:37;;;;;;;5.25;4.18;;;18.10;65.30;;;;;;5053096;28;20025;-24
2023/03/26 04:43:03;;;;;;;5.13;4.30;;;18.10;65.20;;;;;;5053306;28;20496;-24
2023/03/26 04:45:30;;;;;;;5.03;3.88;;;18.10;65.30;;;;;;5053344;28;20033;-23
2023/03/26 04:47:57;;;;;;;5.07;4.25;;;18.10;65.30;;;;;;5052721;28;20039;-25
2023/03/26 04:50:24;;;;;;;5.05;3.90;;;18.10;65.30;;;;;;5053713;28;20025;-25
2023/03/26 04:52:52;;;;;;;4.57;3.70;;;18.10;65.30;;;;;;5052750;28;20528;-24
2023/03/26 04:55:50;;;;;;;5.20;3.70;;;18.10;65.30;;;;;;5053122;28;20025;-24
2023/03/26 04:58:16;;;;;;;5.22;4.10;;;18.10;65.30;;;;;;5052910;28;20496;-24
2023/03/26 05:00:42;;;;;;;5.00;3.95;;;18.00;65.20;;;;;;5052875;28;20067;-24
2023/03/26 05:03:11;;;;;;;5.47;4.05;;;18.00;65.30;;;;;;5053220;28;20372;-24
2023/03/26 05:05:38;;;;;;;5.28;4.15;;;18.00;65.20;;;;;;5052810;28;20404;-24
2023/03/26 05:08:04;;;;;;;5.53;4.13;;;18.00;65.30;;;;;;5052897;28;20060;-25
2023/03/26 05:10:30;;;;;;;4.15;3.58;;;18.00;65.30;;;;;;5052866;28;20036;-24
2023/03/26 05:12:56;;;;;;;5.90;4.07;;;18.00;65.30;;;;;;5052911;28;20029;-24
2023/03/26 05:15:22;;;;;;;4.93;4.07;;;18.00;65.30;;;;;;5053034;28;20072;-23
2023/03/26 05:17:48;;;;;;;5.47;4.20;;;18.00;65.30;;;;;;5052516;28;20029;-24
2023/03/26 05:20:21;;;;;;;4.18;3.45;;;18.00;65.30;;;;;;5052485;28;20029;-24
2023/03/26 05:22:49;;;;;;;4.95;4.03;;;18.00;65.40;;;;;;5052287;28;20029;-23
2023/03/26 05:25:16;;;;;;;4.20;3.58;;;18.00;65.40;;;;;;5052427;28;20025;-23
2023/03/26 05:27:42;;;;;;;4.53;3.78;;;18.00;65.40;;;;;;5052258;28;20021;-23
2023/03/26 05:30:08;;;;;;;4.90;3.40;;;18.00;65.40;;;;;;5050893;28;20082;-23
2023/03/26 05:32:35;;;;;;;5.35;3.80;;;18.00;65.30;;;;;;5052814;28;20108;-22
2023/03/26 05:35:01;;;;;;;4.85;3.92;;;18.00;65.30;;;;;;5052957;28;20032;-22
2023/03/26 05:37:29;;;;;;;4.18;3.72;;;18.00;65.30;;;;;;5052934;28;20483;-23
2023/03/26 05:39:56;;;;;;;4.40;3.70;;;18.10;65.30;;;;;;5052674;28;20036;-24
2023/03/26 05:42:22;;;;;;;5.32;4.10;;;18.10;65.20;;;;;;5052631;28;20144;-24
2023/03/26 05:44:48;;;;;;;4.15;3.53;;;18.10;65.10;;;;;;5052788;28;20107;-25
2023/03/26 05:47:14;;;;;;;5.60;4.25;;;18.20;65.00;;;;;;5052920;28;20114;-24
2023/03/26 05:49:40;;;;;;;4.90;3.63;;;18.30;64.90;;;;;;5052339;28;20025;-24
2023/03/26 05:52:06;;;;;;;5.28;4.03;;;18.40;64.70;;;;;;5052994;28;20032;-25
2023/03/26 05:54:32;;;;;;;4.75;3.78;;;18.50;64.50;;;;;;5056481;28;20021;-24
2023/03/26 05:56:59;;;;;;;4.28;3.70;;;18.60;64.20;;;;;;5056256;28;20496;-24
2023/03/26 05:59:26;;;;;;;5.82;3.95;;;18.70;64.00;;;;;;5056481;28;20024;-24
2023/03/26 06:01:53;;;;;;;4.45;3.50;;;18.90;63.70;;;;;;5056151;28;20021;-24
2023/03/26 06:04:20;;;;;;;3.83;3.42;;;18.90;63.50;;;;;;5055965;28;20098;-25
2023/03/26 06:06:46;;;;;;;4.05;3.65;;;19.00;63.30;;;;;;5055720;28;20032;-23
2023/03/26 06:09:12;;;;;;;3.88;3.28;;;19.10;63.10;;;;;;5056364;28;20037;-24
2023/03/26 06:11:39;;;;;;;4.78;3.58;;;19.20;62.90;;;;;;5056083;28;20104;-23
2023/03/26 06:14:06;;;;;;;4.05;3.60;;;19.20;62.80;;;;;;5055612;28;20116;-24
2023/03/26 06:16:32;;;;;;;5.13;3.72;;;19.30;62.70;;;;;;5056190;28;20377;-25
2023/03/26 06:18:58;;;;;;;4.32;3.60;;;19.30;62.70;;;;;;5055729;28;20025;-24
2023/03/26 06:21:24;;;;;;;4.00;3.60;;;19.20;62.70;;;;;;5055715;28;20087;-24
2023/03/26 06:23:50;;;;;;;4.53;3.83;;;19.30;62.70;;;;;;5055769;28;20021;-23
2023/03/26 06:26:16;;;;;;;4.85;3.88;;;19.20;62.80;;;;;;5055430;28;20101;-25
2023/03/26 06:28:42;;;;;;;4.45;3.47;;;19.20;62.80;;;;;;5056213;28;20025;-25
2023/03/26 06:31:08;;;;;;;4.63;3.53;;;19.20;62.80;;;;;;5055545;28;20032;-24
2023/03/26 06:33:34;;;;;;;4.50;3.58;;;19.20;62.80;;;;;;5054312;28;20068;-24
2023/03/26 06:36:00;;;;;;;5.90;3.60;;;19.20;62.80;;;;;;5055213;28;20056;-24
2023/03/26 06:38:26;;;;;;;4.90;3.88;;;19.30;62.70;;;;;;5054221;28;20063;-24
2023/03/26 06:40:52;;;;;;;4.95;3.40;;;19.40;62.60;;;;;;5055427;28;20024;-24
2023/03/26 06:43:18;;;;;;;4.50;3.63;;;19.40;62.40;;;;;;5055444;28;20025;-23
2023/03/26 06:45:49;;;;;;;3.78;3.28;;;19.40;62.30;;;;;;5055218;28;20060;-24
2023/03/26 06:48:15;;;;;;;3.88;3.47;;;19.50;62.20;;;;;;5055517;28;20029;-23
2023/03/26 06:50:41;;;;;;;4.93;3.72;;;19.50;62.10;;;;;;5055120;28;20033;-22
2023/03/26 06:53:09;;;;;;;4.88;3.97;;;19.60;62.10;;;;;;5055275;28;20021;-23
2023/03/26 06:55:34;;;;;;;4.35;3.47;;;19.60;62.00;;;;;;5054988;28;20071;-23
2023/03/26 06:58:00;;;;;;;4.30;3.50;;;19.70;61.90;;;;;;5054517;28;20025;-24
2023/03/26 07:00:26;;;;;;;4.80;3.60;;;19.70;61.90;;;;;;5054954;28;20083;-24
2023/03/26 07:02:52;;;;;;;5.55;3.85;;;19.70;61.80;;;;;;5055004;28;20028;-23
2023/03/26 07:05:18;;;;;;;5.72;3.90;;;19.70;61.80;;;;;;5054229;28;20076;-23
2023/03/26 07:07:44;;;;;;;3.72;3.35;;;19.70;61.80;;;;;;5054323;28;20385;-23
2023/03/26 07:10:10;;;;;;;4.28;3.42;;;19.80;61.70;;;;;;5054775;28;20033;-23
2023/03/26 07:12:36;;;;;;;4.10;3.70;;;19.80;61.70;;;;;;5054591;28;20071;-23
2023/03/26 07:15:03;;;;;;;5.18;4.05;;;19.90;61.70;;;;;;5053448;28;20024;-22
2023/03/26 07:17:29;;;;;;;5.72;3.80;;;19.90;61.60;;;;;;5055088;28;20059;-23
2023/03/26 07:19:56;;;;;;;5.47;3.53;;;20.10;61.40;;;;;;5054272;28;20025;-23
2023/03/26 07:22:23;;;;;;;4.72;3.47;;;20.30;61.00;;;;;;5054753;28;20033;-23
2023/03/26 07:24:50;;;;;;;4.13;3.55;;;20.50;60.50;;;;;;5054620;28;20028;-24
2023/03/26 07:27:42;;;;;;;6.63;3.60;;;20.70;60.10;;;;;;5054353;28;20095;-23
2023/03/26 07:30:22;;;;;;;4.03;3.28;;;20.70;59.90;;;;;;5054693;28;20484;-23
2023/03/26 07:33:00;;;;;;;6.20;3.97;;;20.60;59.80;;;;;;5054700;28;20179;-23
2023/03/26 07:36:20;;;;;;;5.75;3.78;;;20.50;59.90;;;;;;5054472;28;20380;-24
2023/03/26 07:39:04;;;;;;;5.10;3.80;;;20.50;59.90;;;;;;5012459;28;20125;-23
2023/03/26 07:41:49;;;;;;;5.28;3.30;;;20.40;60.00;;;;;;5054091;28;20029;-24
2023/03/26 07:44:29;;;;;;;3.60;3.30;;;20.40;60.20;;;;;;5054029;28;20033;-25
2023/03/26 07:46:56;;;;;;;5.45;3.40;;;20.30;60.30;;;;;;5054111;28;20071;-23
2023/03/26 07:49:22;;;;;;;4.00;3.35;;;20.30;60.40;;;;;;5054316;28;20047;-24
2023/03/26 07:51:49;;;;;;;4.30;3.28;;;20.20;60.50;;;;;;5053668;28;20119;-24
2023/03/26 07:54:15;;;;;;;5.50;3.30;;;20.20;60.60;;;;;;5054122;28;20416;-24
2023/03/26 07:57:11;;;;;;;3.95;3.25;;;20.00;60.70;;;;;;5053779;28;20021;-24
2023/03/26 07:59:48;;;;;;;4.50;3.38;;;20.00;60.80;;;;;;5052606;28;20051;-24
2023/03/26 08:02:32;;;;;;;3.88;3.33;;;20.00;60.90;;;;;;5054193;28;20056;-23
2023/03/26 08:05:19;;;;;;;5.47;3.28;;;19.90;61.00;;;;;;5054074;28;20052;-23
2023/03/26 08:08:08;;;;;;;3.45;3.10;;;19.90;61.10;;;;;;5052109;28;20410;-24
2023/03/26 08:10:40;;;;;;;4.38;3.40;;;19.90;61.20;;;;;;5053691;28;20032;-24
2023/03/26 08:13:33;;;;;;;5.13;3.70;;;19.90;61.20;;;;;;5053890;28;20033;-23
2023/03/26 08:16:07;;;;;;;3.38;3.05;;;19.90;61.20;;;;;;5053435;28;20056;-25
2023/03/26 08:18:50;;;;;;;4.03;3.35;;;19.90;61.30;;;;;;5053460;28;20550;-23
2023/03/26 08:21:27;;;;;;;3.70;3.30;;;19.80;61.30;;;;;;5053589;28;20029;-24
2023/03/26 08:24:21;;;;;;;3.92;2.97;;;19.80;61.30;;;;;;5053187;28;20032;-23
2023/03/26 08:26:50;;;;;;;;;;;19.80;61.30;;;;;;5054002;28;20037;-25
2023/03/26 08:29:28;;;;;;;4.50;3.10;;;19.80;61.30;;;;;;5053268;28;19958;-24
2023/03/26 08:31:56;;;;;;;4.78;3.80;;;19.80;61.40;;;;;;5053192;28;20159;-24
2023/03/26 08:34:22;;;;;;;4.90;3.50;;;19.80;61.50;;;;;;5053597;28;20087;-23
2023/03/26 08:36:48;;;;;;;5.75;3.30;;;19.80;61.40;;;;;;5053253;28;20064;-22
2023/03/26 08:39:14;;;;;;;3.97;3.30;;;19.70;61.40;;;;;;5053124;28;20064;-25
2023/03/26 08:42:07;;;;;;;4.88;3.50;;;19.70;61.40;;;;;;5053028;28;20029;-25
2023/03/26 08:44:47;;;;;;;5.53;3.60;;;19.70;61.30;;;;;;5051938;28;20087;-24
2023/03/26 08:47:22;;;;;;;4.47;3.38;;;19.70;61.30;;;;;;5053085;28;20116;-23
2023/03/26 08:50:09;;;;;;;4.20;3.15;;;19.70;61.40;;;;;;5052757;28;20068;-23
2023/03/26 08:53:07;;;;;;;4.82;3.45;;;19.70;61.50;;;;;;5053363;28;20090;-23
2023/03/26 08:55:37;;;;;;;3.47;3.03;;;19.70;61.60;;;;;;5053040;28;20025;-24
2023/03/26 08:58:15;;;;;;;5.35;3.22;;;19.70;61.60;;;;;;5052571;28;20032;-22
2023/03/26 09:00:56;;;;;;;3.88;3.40;;;19.70;61.60;;;;;;5053171;28;20021;-23
2023/03/26 09:03:52;;;;;;;3.60;3.20;;;19.70;61.60;;;;;;5053045;28;20036;-23
2023/03/26 09:06:46;;;;;;;4.93;3.30;;;19.70;61.50;;;;;;5052773;28;20108;-22
2023/03/26 09:09:42;;;;;;;3.50;3.13;;;19.70;61.60;;;;;;5053494;28;20047;-23
2023/03/26 09:12:20;;;;;;;4.57;3.30;;;19.70;61.60;;;;;;5052697;28;20162;-23
2023/03/26 09:15:10;;;;;;;3.50;2.90;;;19.70;61.60;;;;;;5053080;28;20119;-23
2023/03/26 09:17:54;;;;;;;3.95;3.25;;;19.70;61.60;;;;;;5053146;28;20036;-23
2023/03/26 09:20:57;;;;;;;3.50;3.20;;;19.70;61.60;;;;;;5053073;28;20040;-24
2023/03/26 09:23:36;;;;;;;4.53;3.25;;;19.70;61.50;;;;;;5052639;28;20110;-24
2023/03/26 09:26:22;;;;;;;3.67;3.13;;;19.70;61.60;;;;;;5052601;28;20056;-23
2023/03/26 09:29:27;;;;;;;3.70;3.28;;;19.70;61.50;;;;;;5056430;28;20366;-23
2023/03/26 09:32:14;;;;;;;5.43;3.10;;;19.70;61.40;;;;;;5056327;28;20025;-24
2023/03/26 09:35:02;;;;;;;4.10;3.20;;;19.70;61.40;;;;;;5056868;28;20028;-23
2023/03/26 09:37:48;;;;;;;3.53;3.13;;;19.70;61.50;;;;;;5056561;28;20033;-23
2023/03/26 09:40:21;;;;;;;3.92;3.47;;;19.70;61.50;;;;;;5057025;28;20028;-23
2023/03/26 09:43:21;;;;;;;3.70;3.28;;;19.70;61.50;;;;;;5056665;28;20029;-23
2023/03/26 09:46:14;;;;;;;4.00;3.30;;;19.70;61.50;;;;;;5056134;28;20029;-23
2023/03/26 09:49:01;;;;;;;5.32;3.25;;;19.70;61.40;;;;;;5056637;28;20523;-22
2023/03/26 09:52:02;;;;;;;4.75;3.20;;;19.70;61.50;;;;;;5056601;28;20029;-24
2023/03/26 09:54:43;;;;;;;4.03;3.05;;;19.60;61.50;;;;;;5014421;28;20062;-23
2023/03/26 09:57:27;;;;;;;3.75;2.97;;;19.60;61.40;;;;;;5014380;28;20029;-23
2023/03/26 10:00:25;;;;;;;3.05;2.72;;;19.60;61.40;;;;;;5014058;28;20446;-22
2023/03/26 10:03:03;;;;;;;5.38;3.20;;;19.60;61.40;;;;;;4991060;28;20117;-23
2023/03/26 10:05:56;;;;;;;4.00;3.05;;;19.60;61.40;;;;;;5014198;28;20041;-24
2023/03/26 10:08:52;;;;;;;4.32;3.00;;;19.60;61.30;;;;;;5014028;28;20058;-23
2023/03/26 10:11:32;;;;;;;3.85;2.80;;;19.60;61.30;;;;;;4962449;28;20074;-22
2023/03/26 10:14:28;;;;;;;3.38;2.90;;;19.60;61.40;;;;;;5014045;28;20482;-22
2023/03/26 10:17:24;;;;;;;3.20;2.90;;;19.50;61.30;;;;;;5014078;28;20383;-23
2023/03/26 10:20:30;;;;;;;5.57;3.03;;;19.60;61.40;;;;;;5013816;28;20053;-23
2023/03/26 10:23:11;;;;;;;3.63;3.05;;;19.50;61.20;;;;;;5013984;28;20030;-24
2023/03/26 10:26:20;;;;;;;5.10;3.10;;;19.50;61.20;;;;;;5013756;28;20049;-24
2023/03/26 10:29:04;;;;;;;4.15;3.05;;;19.50;61.10;;;;;;4968202;28;20080;-24
2023/03/26 10:31:42;;;;;;;3.65;2.92;;;19.50;61.20;;;;;;5038407;28;20048;-22
2023/03/26 10:34:45;;;;;;;3.97;2.85;;;19.50;61.20;;;;;;5055602;28;20112;-24
2023/03/26 10:37:20;;;;;;;3.85;3.00;;;19.40;60.80;;;;;;5056101;28;20033;-23
2023/03/26 10:40:09;;;;;;;4.43;3.10;;;19.40;61.00;;;;;;5055065;28;20533;-24
2023/03/26 10:42:39;;;;;;;5.55;3.10;;;19.40;60.90;;;;;;5055333;28;20063;-24
2023/03/26 10:45:22;;;;;;;3.35;3.05;;;19.40;60.90;;;;;;5055226;28;20086;-24
2023/03/26 10:47:59;;;;;;;3.53;2.90;;;19.40;60.90;;;;;;5055246;28;20060;-24
2023/03/26 10:50:48;;;;;;;4.72;2.80;;;19.40;60.90;;;;;;5055573;28;20716;-24
2023/03/26 10:53:40;;;;;;;4.45;3.25;;;19.40;60.80;;;;;;5013184;28;20026;-24
2023/03/26 10:56:22;;;;;;;4.20;2.90;;;19.40;60.80;;;;;;5012617;28;20037;-24
2023/03/26 10:58:48;;;;;;;4.78;2.97;;;19.40;60.80;;;;;;5013354;28;20042;-24
2023/03/26 11:01:47;;;;;;;5.82;3.15;;;19.40;60.80;;;;;;5013216;28;20049;-23
2023/03/26 11:04:40;;;;;;;4.85;3.05;;;19.40;60.70;;;;;;5013115;28;20029;-24
2023/03/26 11:07:23;;;;;;;4.32;3.03;;;19.40;60.70;;;;;;5012779;28;20434;-24
2023/03/26 11:10:01;;;;;;;2.58;2.38;;;19.40;60.70;;;;;;5012843;28;20441;-22
2023/03/26 11:12:45;;;;;;;5.18;2.90;;;19.40;60.70;;;;;;5012945;28;20034;-25
2023/03/26 11:15:28;;;;;;;4.88;2.88;;;19.40;60.90;;;;;;5013057;28;20030;-24
2023/03/26 11:18:17;;;;;;;4.00;2.90;;;19.40;60.90;;;;;;5013078;28;20510;-24
2023/03/26 11:21:16;;;;;;;4.97;2.60;;;19.40;60.70;;;;;;5012893;28;20022;-23
2023/03/26 11:24:02;;;;;;;2.83;2.22;;;19.40;60.70;;;;;;5013104;28;20548;-24
2023/03/26 11:26:36;;;;;;;3.00;2.47;;;19.40;60.70;;;;;;5012636;28;20038;-24
2023/03/26 11:29:27;;;;;;;5.78;2.75;;;19.40;60.60;;;;;;5012898;28;20053;-23
2023/03/26 11:32:14;;;;;;;5.13;2.72;;;19.40;60.60;;;;;;5054528;28;20056;-23
2023/03/26 11:35:07;;;;;;;5.45;2.97;;;19.50;60.60;;;;;;5054462;28;20393;-24
2023/03/26 11:37:39;;;;;;;6.25;2.90;;;19.40;60.80;;;;;;5054635;28;20054;-23
2023/03/26 11:40:35;;;;;;;4.95;2.80;;;19.50;61.00;;;;;;5054287;28;20047;-23
2023/03/26 11:43:05;;;;;;;5.50;2.95;;;19.50;61.00;;;;;;5054190;28;20013;-24
2023/03/26 11:45:37;;;;;;;3.85;3.03;;;19.40;61.10;;;;;;5054089;28;20082;-24
2023/03/26 11:48:16;;;;;;;5.73;2.77;;;19.40;61.10;;;;;;5053950;28;20024;-24
2023/03/26 11:50:48;;;;;;;5.57;2.83;;;19.50;61.10;;;;;;5053555;28;20025;-24
2023/03/26 11:53:21;;;;;;;4.95;2.60;;;19.40;61.10;;;;;;5054288;28;20095;-24
2023/03/26 11:55:57;;;;;;;5.25;2.72;;;19.40;61.10;;;;;;5054027;28;20036;-25
2023/03/26 11:58:32;;;;;;;5.85;2.95;;;19.40;61.00;;;;;;5053824;28;20485;-24
2023/03/26 12:01:03;;;;;;;5.28;2.80;;;19.40;61.10;;;;;;5053846;28;20098;-23
2023/03/26 12:03:30;;;;;;;7.43;3.05;;;19.40;61.00;;;;;;5054381;28;20025;-24
2023/03/26 12:05:58;;;;;;;4.95;3.05;;;19.40;61.00;;;;;;5053510;28;20080;-23
2023/03/26 12:08:37;;;;;;;3.70;2.88;;;19.40;61.00;;;;;;5053507;28;20045;-23
2023/03/26 12:11:09;;;;;;;5.72;2.95;;;19.40;60.90;;;;;;5053687;28;20416;-24
2023/03/26 12:13:43;;;;;;;7.25;3.00;;;19.40;61.00;;;;;;5054018;28;20044;-24
2023/03/26 12:16:18;;;;;;;5.50;2.90;;;19.40;61.10;;;;;;5053654;28;20159;-24
2023/03/26 12:18:46;;;;;;;7.43;3.38;;;19.40;61.00;;;;;;5053799;28;20108;-24
2023/03/26 12:21:18;;;;;;;4.05;2.90;;;19.40;61.00;;;;;;5053779;28;20047;-24
2023/03/26 12:24:04;;;;;;;3.90;3.00;;;19.40;61.00;;;;;;5053309;28;20542;-24
2023/03/26 12:26:41;;;;;;;6.75;2.97;;;19.40;60.90;;;;;;5053620;28;20064;-25
2023/03/26 12:29:16;;;;;;;5.15;2.90;;;19.40;61.00;;;;;;5053749;28;20016;-24
2023/03/26 12:32:01;;;;;;;8.75;2.92;;;19.40;61.10;;;;;;5053402;28;20028;-24
2023/03/26 12:34:34;;;;;;;5.28;3.00;;;19.40;61.10;;;;;;5053619;28;20388;-24
2023/03/26 12:37:02;;;;;;;4.78;2.95;;;19.40;61.10;;;;;;5051965;28;20392;-24
2023/03/26 12:39:42;;;;;;;4.68;3.10;;;19.40;61.20;;;;;;5053207;28;20439;-24
2023/03/26 12:42:31;;;;;;;3.92;2.88;;;19.40;61.20;;;;;;5053103;28;20079;-24
2023/03/26 12:44:58;;;;;;;4.80;3.00;;;19.40;61.10;;;;;;5053263;28;20037;-24
2023/03/26 12:47:31;;;;;;;5.10;2.97;;;19.40;61.20;;;;;;5053374;28;20025;-23
2023/03/26 12:49:58;;;;;;;5.38;3.00;;;19.40;61.20;;;;;;5053191;28;20056;-23
2023/03/26 12:52:24;;;;;;;4.85;2.88;;;19.40;61.30;;;;;;5052981;28;20029;-24
2023/03/26 12:55:19;;;;;;;5.32;3.05;;;19.40;61.30;;;;;;5052953;28;20063;-23
2023/03/26 12:57:55;;;;;;;4.93;3.10;;;19.40;61.30;;;;;;5052865;28;20123;-24
2023/03/26 13:00:27;;;;;;;4.82;2.65;;;19.40;61.30;;;;;;5053289;28;20044;-22
2023/03/26 13:03:20;;;;;;;4.90;2.78;;;19.40;61.40;;;;;;5052019;28;20116;-22
2023/03/26 13:06:08;;;;;;;4.95;2.83;;;19.40;61.50;;;;;;5052995;28;20041;-22
2023/03/26 13:09:00;;;;;;;4.40;3.10;;;19.40;61.50;;;;;;5051912;28;20056;-22
2023/03/26 13:11:43;;;;;;;4.75;2.67;;;19.40;61.40;;;;;;5049754;28;20136;-23
2023/03/26 13:14:31;;;;;;;3.88;2.58;;;19.40;61.50;;;;;;5052322;28;20028;-23
2023/03/26 13:17:10;;;;;;;2.95;2.35;;;19.40;61.40;;;;;;5052163;28;20029;-24
2023/03/26 13:19:50;;;;;;;3.75;2.60;;;19.40;61.40;;;;;;5051925;28;20485;-23
2023/03/26 13:22:23;;;;;;;4.40;2.70;;;19.40;61.50;;;;;;5052101;28;20404;-23
2023/03/26 13:24:57;;;;;;;5.15;2.60;;;19.40;61.50;;;;;;5051840;28;20033;-23